createdAt,value
2019-02-19T00:00:21.118Z,62.87
2019-02-19T00:01:21.107Z,62.35
2019-02-19T00:02:21.095Z,62.77
2019-02-19T00:03:21.088Z,62.05
2019-02-19T00:04:21.077Z,62.46
2019-02-19T00:05:21.076Z,63.07
2019-02-19T00:06:21.053Z,62.97
2019-02-19T00:07:21.043Z,62.97
2019-02-19T00:08:21.035Z,63.18
2019-02-19T00:09:21.024Z,62.97
2019-02-19T00:10:21.009Z,63.28
2019-02-19T00:11:21.010Z,63.49
2019-02-19T00:12:20.988Z,63.69
2019-02-19T00:13:20.989Z,63.59
2019-02-19T00:14:20.966Z,63.42
2019-02-19T00:15:20.955Z,63.39
2019-02-19T00:16:20.944Z,63.39
2019-02-19T00:17:20.946Z,63.49
2019-02-19T00:18:20.925Z,63.69
2019-02-19T00:19:20.912Z,63.79
2019-02-19T00:20:20.904Z,63.69
2019-02-19T00:21:20.889Z,64.00
2019-02-19T00:22:20.881Z,63.59
2019-02-19T00:23:20.881Z,63.72
2019-02-19T00:24:20.857Z,63.62
2019-02-19T00:25:20.849Z,64.34
2019-02-19T00:26:20.835Z,64.34
2019-02-19T00:27:20.828Z,64.03
2019-02-19T00:28:20.822Z,64.14
2019-02-19T00:29:20.812Z,64.14
2019-02-19T00:30:20.792Z,64.03
2019-02-19T00:31:20.790Z,63.82
2019-02-19T00:32:20.770Z,64.14
2019-02-19T00:33:20.777Z,64.24
2019-02-19T00:34:20.751Z,64.24
2019-02-19T00:35:20.750Z,63.93
2019-02-19T00:36:20.724Z,64.96
2019-02-19T00:37:20.716Z,64.99
2019-02-19T00:38:20.703Z,64.78
2019-02-19T00:39:20.698Z,64.65
2019-02-19T00:40:20.684Z,64.47
2019-02-19T00:41:20.680Z,64.47
2019-02-19T00:42:20.659Z,64.89
2019-02-19T00:43:20.649Z,65.30
2019-02-19T00:44:20.640Z,65.50
2019-02-19T00:45:20.629Z,65.40
2019-02-19T00:46:20.616Z,65.37
2019-02-19T00:47:20.619Z,65.71
2019-02-19T00:48:20.595Z,65.71
2019-02-19T00:49:20.584Z,65.50
2019-02-19T00:50:20.572Z,66.12
2019-02-19T00:51:20.562Z,66.02
2019-02-19T00:52:20.552Z,66.22
2019-02-19T00:53:20.563Z,65.61
2019-02-19T00:54:20.530Z,65.47
2019-02-19T00:55:20.518Z,66.22
2019-02-19T00:56:20.514Z,65.71
2019-02-19T00:57:20.499Z,66.02
2019-02-19T00:58:20.493Z,65.71
2019-02-19T00:59:20.488Z,65.92
2019-02-19T01:00:20.465Z,66.43
2019-02-19T01:01:20.454Z,66.15
2019-02-19T01:02:20.445Z,66.02
2019-02-19T01:03:20.433Z,66.15
2019-02-19T01:04:20.424Z,66.97
2019-02-19T01:05:20.423Z,66.67
2019-02-19T01:06:20.402Z,66.87
2019-02-19T01:07:20.389Z,66.67
2019-02-19T01:08:20.379Z,66.97
2019-02-19T01:09:20.370Z,66.25
2019-02-19T01:10:20.359Z,66.15
2019-02-19T01:11:20.359Z,67.18
2019-02-19T01:12:20.337Z,67.08
2019-02-19T01:13:20.334Z,67.18
2019-02-19T01:14:20.316Z,67.49
2019-02-19T01:15:25.387Z,66.87
2019-02-19T01:16:21.307Z,67.29
2019-02-19T01:17:20.288Z,66.97
2019-02-19T01:18:20.274Z,66.56
2019-02-19T01:19:20.262Z,67.49
2019-02-19T01:20:20.253Z,67.70
2019-02-19T01:21:20.242Z,67.70
2019-02-19T01:22:20.242Z,67.60
2019-02-19T01:23:20.221Z,67.60
2019-02-19T01:24:20.213Z,67.80
2019-02-19T01:25:20.202Z,67.60
2019-02-19T01:26:20.189Z,67.49
2019-02-19T01:27:20.178Z,67.49
2019-02-19T01:28:20.182Z,68.01
2019-02-19T01:29:20.157Z,67.90
2019-02-19T01:30:20.147Z,67.90
2019-02-19T01:31:20.136Z,67.90
2019-02-19T01:32:20.127Z,68.32
2019-02-19T01:33:20.116Z,67.49
2019-02-19T01:34:20.119Z,68.42
2019-02-19T01:35:20.096Z,68.32
2019-02-19T01:36:20.083Z,68.21
2019-02-19T01:37:20.072Z,68.11
2019-02-19T01:38:20.064Z,68.01
2019-02-19T01:39:20.051Z,68.21
2019-02-19T01:40:20.053Z,68.11
2019-02-19T01:41:20.032Z,67.90
2019-02-19T01:42:20.020Z,68.62
2019-02-19T01:43:20.009Z,68.62
2019-02-19T01:44:19.998Z,68.32
2019-02-19T01:45:19.987Z,68.52
2019-02-19T01:46:19.992Z,68.39
2019-02-19T01:47:19.966Z,68.59
2019-02-19T01:48:19.956Z,68.90
2019-02-19T01:49:19.946Z,69.21
2019-02-19T01:50:19.935Z,68.90
2019-02-19T01:51:19.925Z,69.01
2019-02-19T01:52:19.923Z,69.52
2019-02-19T01:53:19.902Z,69.42
2019-02-19T01:54:19.891Z,69.62
2019-02-19T01:55:19.880Z,70.04
2019-02-19T01:56:19.869Z,69.83
2019-02-19T01:57:19.859Z,69.73
2019-02-19T01:58:19.860Z,69.73
2019-02-19T01:59:19.837Z,69.73
2019-02-19T02:00:19.827Z,69.62
2019-02-19T02:01:19.817Z,69.62
2019-02-19T02:02:19.805Z,69.28
2019-02-19T02:03:19.793Z,69.93
2019-02-19T02:04:19.794Z,69.73
2019-02-19T02:05:19.773Z,69.73
2019-02-19T02:06:19.762Z,69.90
2019-02-19T02:07:19.751Z,70.42
2019-02-19T02:08:19.739Z,69.90
2019-02-19T02:09:19.729Z,70.14
2019-02-19T02:10:19.731Z,70.10
2019-02-19T02:11:19.707Z,70.21
2019-02-19T02:12:19.696Z,70.52
2019-02-19T02:13:19.685Z,70.62
2019-02-19T02:14:19.677Z,70.42
2019-02-19T02:15:19.663Z,71.03
2019-02-19T02:16:19.663Z,70.52
2019-02-19T02:17:19.641Z,70.62
2019-02-19T02:18:19.631Z,71.03
2019-02-19T02:19:19.621Z,71.55
2019-02-19T02:20:19.609Z,71.65
2019-02-19T02:21:19.597Z,71.86
2019-02-19T02:22:19.603Z,72.27
2019-02-19T02:23:19.575Z,72.37
2019-02-19T02:24:19.565Z,72.78
2019-02-19T02:25:19.554Z,72.78
2019-02-19T02:26:19.545Z,72.78
2019-02-19T02:27:19.531Z,72.47
2019-02-19T02:28:19.532Z,73.19
2019-02-19T02:29:19.511Z,73.61
2019-02-19T02:30:19.507Z,73.71
2019-02-19T02:31:19.488Z,73.81
2019-02-19T02:32:19.477Z,74.02
2019-02-19T02:33:19.468Z,74.02
2019-02-19T02:34:19.464Z,74.12
2019-02-19T02:35:19.447Z,74.12
2019-02-19T02:36:19.440Z,74.22
2019-02-19T02:37:19.422Z,74.12
2019-02-19T02:38:19.411Z,74.02
2019-02-19T02:39:19.400Z,74.63
2019-02-19T02:40:19.403Z,74.84
2019-02-19T02:41:19.382Z,74.95
2019-02-19T02:42:19.368Z,74.74
2019-02-19T02:43:19.357Z,75.46
2019-02-19T02:44:19.346Z,75.35
2019-02-19T02:45:19.338Z,75.67
2019-02-19T02:46:19.338Z,76.18
2019-02-19T02:47:19.314Z,76.49
2019-02-19T02:48:19.303Z,76.21
2019-02-19T02:49:19.307Z,75.97
2019-02-19T02:50:19.286Z,76.53
2019-02-19T02:51:19.269Z,76.70
2019-02-19T02:52:19.273Z,76.83
2019-02-19T02:53:19.252Z,76.53
2019-02-19T02:54:19.241Z,76.63
2019-02-19T02:55:19.226Z,77.14
2019-02-19T02:56:19.216Z,77.76
2019-02-19T02:57:19.205Z,77.04
2019-02-19T02:58:19.210Z,77.25
2019-02-19T02:59:19.184Z,77.55
2019-02-19T03:00:19.173Z,77.97
2019-02-19T03:01:19.164Z,77.55
2019-02-19T03:02:19.157Z,78.07
2019-02-19T03:03:19.139Z,78.07
2019-02-19T03:04:19.148Z,78.28
2019-02-19T03:05:19.120Z,78.79
2019-02-19T03:06:19.107Z,79.14
2019-02-19T03:07:19.098Z,78.93
2019-02-19T03:08:19.085Z,79.03
2019-02-19T03:09:19.073Z,79.24
2019-02-19T03:10:19.074Z,79.34
2019-02-19T03:11:19.054Z,79.24
2019-02-19T03:12:19.040Z,79.44
2019-02-19T03:13:19.030Z,79.44
2019-02-19T03:14:19.020Z,79.44
2019-02-19T03:15:19.022Z,79.96
2019-02-19T03:16:19.007Z,79.86
2019-02-19T03:17:18.990Z,80.47
2019-02-19T03:18:18.975Z,80.27
2019-02-19T03:19:18.964Z,80.68
2019-02-19T03:20:18.955Z,80.89
2019-02-19T03:21:18.942Z,81.20
2019-02-19T03:22:18.941Z,80.89
2019-02-19T03:23:18.920Z,81.20
2019-02-19T03:24:18.910Z,81.71
2019-02-19T03:25:18.898Z,81.92
2019-02-19T03:26:18.887Z,82.12
2019-02-19T03:27:18.877Z,81.81
2019-02-19T03:28:18.876Z,82.95
2019-02-19T03:29:18.855Z,82.12
2019-02-19T03:30:18.843Z,81.92
2019-02-19T03:31:18.833Z,82.26
2019-02-19T03:32:18.844Z,82.12
2019-02-19T03:33:18.811Z,82.37
2019-02-19T03:34:18.822Z,82.33
2019-02-19T03:35:18.789Z,82.64
2019-02-19T03:36:18.776Z,83.05
2019-02-19T03:37:18.765Z,83.29
2019-02-19T03:38:18.755Z,82.84
2019-02-19T03:39:18.744Z,83.09
2019-02-19T03:40:18.747Z,83.05
2019-02-19T03:41:18.722Z,83.29
2019-02-19T03:42:18.710Z,82.98
2019-02-19T03:43:18.705Z,82.89
2019-02-19T03:44:18.691Z,83.19
2019-02-19T03:45:18.678Z,83.50
2019-02-19T03:46:18.677Z,83.40
2019-02-19T03:47:18.658Z,83.61
2019-02-19T03:48:18.644Z,84.12
2019-02-19T03:49:18.638Z,84.01
2019-02-19T03:50:18.623Z,84.53
2019-02-19T03:51:18.613Z,84.22
2019-02-19T03:52:18.614Z,84.33
2019-02-19T03:53:18.591Z,84.33
2019-02-19T03:54:18.584Z,84.94
2019-02-19T03:55:18.568Z,84.74
2019-02-19T03:56:18.557Z,84.74
2019-02-19T03:57:18.547Z,84.74
2019-02-19T03:58:18.552Z,84.64
2019-02-19T03:59:18.528Z,84.53
2019-02-19T04:00:18.520Z,84.43
2019-02-19T04:01:18.503Z,84.84
2019-02-19T04:02:18.528Z,85.15
2019-02-19T04:03:18.483Z,85.09
2019-02-19T04:04:18.493Z,85.19
2019-02-19T04:05:18.475Z,85.19
2019-02-19T04:06:18.451Z,84.94
2019-02-19T04:07:18.442Z,85.36
2019-02-19T04:08:18.428Z,85.05
2019-02-19T04:09:18.418Z,85.15
2019-02-19T04:10:18.420Z,85.15
2019-02-19T04:11:18.398Z,85.25
2019-02-19T04:12:18.387Z,85.15
2019-02-19T04:13:18.377Z,84.64
2019-02-19T04:14:18.365Z,84.94
2019-02-19T04:15:18.355Z,84.99
2019-02-19T04:16:21.235Z,85.25
2019-02-19T04:17:18.333Z,84.94
2019-02-19T04:18:18.323Z,85.19
2019-02-19T04:19:18.315Z,85.09
2019-02-19T04:20:18.301Z,84.94
2019-02-19T04:21:18.292Z,85.19
2019-02-19T04:22:18.297Z,85.19
2019-02-19T04:23:18.271Z,85.09
2019-02-19T04:24:18.260Z,84.57
2019-02-19T04:25:18.248Z,85.30
2019-02-19T04:26:18.238Z,85.30
2019-02-19T04:27:18.238Z,85.19
2019-02-19T04:28:18.235Z,85.30
2019-02-19T04:29:18.206Z,85.05
2019-02-19T04:30:18.197Z,85.19
2019-02-19T04:31:18.186Z,85.19
2019-02-19T04:32:18.179Z,84.99
2019-02-19T04:33:18.163Z,85.19
2019-02-19T04:34:18.165Z,84.99
2019-02-19T04:35:18.142Z,84.99
2019-02-19T04:36:18.132Z,84.99
2019-02-19T04:37:18.121Z,85.09
2019-02-19T04:38:18.110Z,85.09
2019-02-19T04:39:18.100Z,85.71
2019-02-19T04:40:18.104Z,85.39
2019-02-19T04:41:18.080Z,84.99
2019-02-19T04:42:18.071Z,85.09
2019-02-19T04:43:18.057Z,84.99
2019-02-19T04:44:18.048Z,85.39
2019-02-19T04:45:18.043Z,85.09
2019-02-19T04:46:18.037Z,85.30
2019-02-19T04:47:18.017Z,85.39
2019-02-19T04:48:18.013Z,84.99
2019-02-19T04:49:17.997Z,85.60
2019-02-19T04:50:19.735Z,84.99
2019-02-19T04:51:17.975Z,85.30
2019-02-19T04:52:17.983Z,85.60
2019-02-19T04:53:17.954Z,85.39
2019-02-19T04:54:17.942Z,85.39
2019-02-19T04:55:17.934Z,85.39
2019-02-19T04:56:17.920Z,85.19
2019-02-19T04:57:17.910Z,85.19
2019-02-19T04:58:17.910Z,85.30
2019-02-19T04:59:17.890Z,85.30
2019-02-19T05:00:17.878Z,85.19
2019-02-19T05:01:17.881Z,85.09
2019-02-19T05:02:17.856Z,85.25
2019-02-19T05:03:17.851Z,85.09
2019-02-19T05:04:17.856Z,84.67
2019-02-19T05:05:17.825Z,84.67
2019-02-19T05:06:17.813Z,84.47
2019-02-19T05:07:17.802Z,84.57
2019-02-19T05:08:17.793Z,84.67
2019-02-19T05:09:17.782Z,84.64
2019-02-19T05:10:17.783Z,84.78
2019-02-19T05:11:17.760Z,84.67
2019-02-19T05:12:17.750Z,84.99
2019-02-19T05:13:17.740Z,84.67
2019-02-19T05:14:17.769Z,84.67
2019-02-19T05:15:17.719Z,85.09
2019-02-19T05:16:17.717Z,85.19
2019-02-19T05:17:17.700Z,85.19
2019-02-19T05:18:17.686Z,85.50
2019-02-19T05:19:17.675Z,84.78
2019-02-19T05:20:17.665Z,85.50
2019-02-19T05:21:17.654Z,84.99
2019-02-19T05:22:17.658Z,84.99
2019-02-19T05:23:17.634Z,84.88
2019-02-19T05:24:17.622Z,84.99
2019-02-19T05:25:17.612Z,85.46
2019-02-19T05:26:17.612Z,85.09
2019-02-19T05:27:17.590Z,85.39
2019-02-19T05:28:17.588Z,85.71
2019-02-19T05:29:17.571Z,85.50
2019-02-19T05:30:17.557Z,85.30
2019-02-19T05:31:17.546Z,85.71
2019-02-19T05:32:17.535Z,85.60
2019-02-19T05:33:17.526Z,85.60
2019-02-19T05:34:17.526Z,85.71
2019-02-19T05:35:17.515Z,85.71
2019-02-19T05:36:17.492Z,85.77
2019-02-19T05:37:17.487Z,85.91
2019-02-19T05:38:17.470Z,85.81
2019-02-19T05:39:17.467Z,85.81
2019-02-19T05:40:17.480Z,85.50
2019-02-19T05:41:17.438Z,85.46
2019-02-19T05:42:17.430Z,85.77
2019-02-19T05:43:17.415Z,85.71
2019-02-19T05:44:17.406Z,85.50
2019-02-19T05:45:17.395Z,85.60
2019-02-19T05:46:17.412Z,85.46
2019-02-19T05:47:17.376Z,85.60
2019-02-19T05:48:17.363Z,85.67
2019-02-19T05:49:17.353Z,85.57
2019-02-19T05:50:17.344Z,85.57
2019-02-19T05:51:17.333Z,85.57
2019-02-19T05:52:17.333Z,85.67
2019-02-19T05:53:17.310Z,85.36
2019-02-19T05:54:17.299Z,85.46
2019-02-19T05:55:17.288Z,85.25
2019-02-19T05:56:17.278Z,85.60
2019-02-19T05:57:17.273Z,85.36
2019-02-19T05:58:17.270Z,85.57
2019-02-19T05:59:17.246Z,85.25
2019-02-19T06:00:17.234Z,85.36
2019-02-19T06:01:17.227Z,85.05
2019-02-19T06:02:17.213Z,85.05
2019-02-19T06:03:17.201Z,85.25
2019-02-19T06:04:17.208Z,85.46
2019-02-19T06:05:17.191Z,85.36
2019-02-19T06:06:17.169Z,85.30
2019-02-19T06:07:17.158Z,85.25
2019-02-19T06:08:17.147Z,85.50
2019-02-19T06:09:17.138Z,85.19
2019-02-19T06:10:17.143Z,85.05
2019-02-19T06:11:17.114Z,85.30
2019-02-19T06:12:17.103Z,85.09
2019-02-19T06:13:17.138Z,84.99
2019-02-19T06:14:17.084Z,85.15
2019-02-19T06:15:17.076Z,85.30
2019-02-19T06:16:17.082Z,84.88
2019-02-19T06:17:17.049Z,85.46
2019-02-19T06:18:17.038Z,85.19
2019-02-19T06:19:17.026Z,85.25
2019-02-19T06:20:17.016Z,85.25
2019-02-19T06:21:17.006Z,84.84
2019-02-19T06:22:17.005Z,84.74
2019-02-19T06:23:16.984Z,84.74
2019-02-19T06:24:16.973Z,84.64
2019-02-19T06:25:16.968Z,84.47
2019-02-19T06:26:16.950Z,84.88
2019-02-19T06:27:16.940Z,84.67
2019-02-19T06:28:16.941Z,84.78
2019-02-19T06:29:16.917Z,84.99
2019-02-19T06:30:16.907Z,84.99
2019-02-19T06:31:16.895Z,85.19
2019-02-19T06:32:16.890Z,85.30
2019-02-19T06:33:16.875Z,85.19
2019-02-19T06:34:16.874Z,85.19
2019-02-19T06:35:16.853Z,85.19
2019-02-19T06:36:16.844Z,84.99
2019-02-19T06:37:16.831Z,85.02
2019-02-19T06:38:16.821Z,85.85
2019-02-19T06:39:16.809Z,85.39
2019-02-19T06:40:16.815Z,85.44
2019-02-19T06:41:16.788Z,85.44
2019-02-19T06:42:16.778Z,85.44
2019-02-19T06:43:16.770Z,85.33
2019-02-19T06:44:16.757Z,85.44
2019-02-19T06:45:16.761Z,85.64
2019-02-19T06:46:16.746Z,85.64
2019-02-19T06:47:16.725Z,85.44
2019-02-19T06:48:16.717Z,85.33
2019-02-19T06:49:16.704Z,85.44
2019-02-19T06:50:16.694Z,85.23
2019-02-19T06:51:16.685Z,85.44
2019-02-19T06:52:16.683Z,85.54
2019-02-19T06:53:16.661Z,85.33
2019-02-19T06:54:16.652Z,85.33
2019-02-19T06:55:16.652Z,85.44
2019-02-19T06:56:16.631Z,85.44
2019-02-19T06:57:16.630Z,84.92
2019-02-19T06:58:16.619Z,85.33
2019-02-19T06:59:16.598Z,85.33
2019-02-19T07:00:16.587Z,85.33
2019-02-19T07:01:16.576Z,84.99
2019-02-19T07:02:16.571Z,85.09
2019-02-19T07:03:16.556Z,84.99
2019-02-19T07:04:16.556Z,84.99
2019-02-19T07:05:16.534Z,85.85
2019-02-19T07:06:16.527Z,85.19
2019-02-19T07:07:16.514Z,84.74
2019-02-19T07:08:16.503Z,84.78
2019-02-19T07:09:16.494Z,84.78
2019-02-19T07:10:16.501Z,84.99
2019-02-19T07:11:16.473Z,84.78
2019-02-19T07:12:16.460Z,84.67
2019-02-19T07:13:16.451Z,84.78
2019-02-19T07:14:16.439Z,84.78
2019-02-19T07:15:16.428Z,84.47
2019-02-19T07:16:16.429Z,84.67
2019-02-19T07:17:16.412Z,84.57
2019-02-19T07:18:16.396Z,84.61
2019-02-19T07:19:16.384Z,84.67
2019-02-19T07:20:16.397Z,84.78
2019-02-19T07:21:16.366Z,84.72
2019-02-19T07:22:16.365Z,84.67
2019-02-19T07:23:16.343Z,84.78
2019-02-19T07:24:16.334Z,84.81
2019-02-19T07:25:16.343Z,84.81
2019-02-19T07:26:16.354Z,84.92
2019-02-19T07:27:16.302Z,84.27
2019-02-19T07:28:16.320Z,84.41
2019-02-19T07:29:16.279Z,84.36
2019-02-19T07:30:16.268Z,84.41
2019-02-19T07:31:16.258Z,84.30
2019-02-19T07:32:16.250Z,84.41
2019-02-19T07:33:16.237Z,84.30
2019-02-19T07:34:16.238Z,84.41
2019-02-19T07:35:16.216Z,84.41
2019-02-19T07:36:16.216Z,84.41
2019-02-19T07:37:16.196Z,84.20
2019-02-19T07:38:16.185Z,85.13
2019-02-19T07:39:16.174Z,84.20
2019-02-19T07:40:17.496Z,84.09
2019-02-19T07:41:16.150Z,84.16
2019-02-19T07:42:16.142Z,84.30
2019-02-19T07:43:16.140Z,84.41
2019-02-19T07:44:16.118Z,84.36
2019-02-19T07:45:16.107Z,84.30
2019-02-19T07:46:16.106Z,83.85
2019-02-19T07:47:24.259Z,83.64
2019-02-19T07:48:17.073Z,83.75
2019-02-19T07:49:16.064Z,83.75
2019-02-19T07:50:16.053Z,84.09
2019-02-19T07:51:16.042Z,84.09
2019-02-19T07:52:16.045Z,83.44
2019-02-19T07:53:16.021Z,83.68
2019-02-19T07:54:16.015Z,83.64
2019-02-19T07:55:16.001Z,82.75
2019-02-19T07:56:15.990Z,83.27
2019-02-19T07:57:15.979Z,83.27
2019-02-19T07:58:15.981Z,82.82
2019-02-19T07:59:15.956Z,83.37
2019-02-19T08:00:15.947Z,83.78
2019-02-19T08:01:15.935Z,83.37
2019-02-19T08:02:15.924Z,82.96
2019-02-19T08:03:15.913Z,83.23
2019-02-19T08:04:15.914Z,83.06
2019-02-19T08:05:15.891Z,83.13
2019-02-19T08:06:15.885Z,83.99
2019-02-19T08:07:15.871Z,82.92
2019-02-19T08:08:15.860Z,82.61
2019-02-19T08:09:15.851Z,82.65
2019-02-19T08:10:15.849Z,82.65
2019-02-19T08:11:15.828Z,82.51
2019-02-19T08:12:15.818Z,82.10
2019-02-19T08:13:15.806Z,82.40
2019-02-19T08:14:15.795Z,82.40
2019-02-19T08:15:15.787Z,82.82
2019-02-19T08:16:15.784Z,82.30
2019-02-19T08:17:15.764Z,81.58
2019-02-19T08:18:15.754Z,81.03
2019-02-19T08:19:15.750Z,80.93
2019-02-19T08:20:16.441Z,81.13
2019-02-19T08:21:15.720Z,81.23
2019-02-19T08:22:15.727Z,81.03
2019-02-19T08:23:15.698Z,81.34
2019-02-19T08:24:15.687Z,81.03
2019-02-19T08:25:15.676Z,81.09
2019-02-19T08:26:15.666Z,80.82
2019-02-19T08:27:15.654Z,80.89
2019-02-19T08:28:15.659Z,80.99
2019-02-19T08:29:15.634Z,80.93
2019-02-19T08:30:15.621Z,80.47
2019-02-19T08:31:15.613Z,80.58
2019-02-19T08:32:15.600Z,79.86
2019-02-19T08:33:15.589Z,79.61
2019-02-19T08:34:15.590Z,79.41
2019-02-19T08:35:15.570Z,79.61
2019-02-19T08:36:15.558Z,79.51
2019-02-19T08:37:15.548Z,79.41
2019-02-19T08:38:15.538Z,79.10
2019-02-19T08:39:15.525Z,79.06
2019-02-19T08:40:15.537Z,78.03
2019-02-19T08:41:15.542Z,78.44
2019-02-19T08:42:15.493Z,78.75
2019-02-19T08:43:15.482Z,78.75
2019-02-19T08:44:15.472Z,78.55
2019-02-19T08:45:15.463Z,78.34
2019-02-19T08:46:15.460Z,78.20
2019-02-19T08:47:15.438Z,78.00
2019-02-19T08:48:15.428Z,77.58
2019-02-19T08:49:15.417Z,77.07
2019-02-19T08:50:15.405Z,77.24
2019-02-19T08:51:15.395Z,76.42
2019-02-19T08:52:15.396Z,76.62
2019-02-19T08:53:15.374Z,76.21
2019-02-19T08:54:15.364Z,77.24
2019-02-19T08:55:15.354Z,75.76
2019-02-19T08:56:15.341Z,76.28
2019-02-19T08:57:15.338Z,76.14
2019-02-19T08:58:15.342Z,75.12
2019-02-19T08:59:15.312Z,75.49
2019-02-19T09:00:15.301Z,74.70
2019-02-19T09:01:15.290Z,74.26
2019-02-19T09:02:15.278Z,73.74
2019-02-19T09:03:16.869Z,73.85
2019-02-19T09:04:15.265Z,74.50
2019-02-19T09:05:15.244Z,73.47
2019-02-19T09:06:15.256Z,73.88
2019-02-19T09:07:15.225Z,73.88
2019-02-19T09:08:15.217Z,73.95
2019-02-19T09:09:15.200Z,74.05
2019-02-19T09:10:15.211Z,73.95
2019-02-19T09:11:15.182Z,73.74
2019-02-19T09:12:15.169Z,73.44
2019-02-19T09:13:15.157Z,73.44
2019-02-19T09:14:15.147Z,73.95
2019-02-19T09:15:15.138Z,73.74
2019-02-19T09:16:15.142Z,73.13
2019-02-19T09:17:15.112Z,73.02
2019-02-19T09:18:15.101Z,72.89
2019-02-19T09:19:15.091Z,72.27
2019-02-19T09:20:15.079Z,72.17
2019-02-19T09:21:15.068Z,72.99
2019-02-19T09:22:15.074Z,72.17
2019-02-19T09:23:15.048Z,72.38
2019-02-19T09:24:15.037Z,72.20
2019-02-19T09:25:15.024Z,72.41
2019-02-19T09:26:15.013Z,73.13
2019-02-19T09:27:15.002Z,72.51
2019-02-19T09:28:15.009Z,72.51
2019-02-19T09:29:14.984Z,72.55
2019-02-19T09:30:14.971Z,73.13
2019-02-19T09:31:14.958Z,72.96
2019-02-19T09:32:14.947Z,72.72
2019-02-19T09:33:14.936Z,72.10
2019-02-19T09:34:14.939Z,72.00
2019-02-19T09:35:14.914Z,72.06
2019-02-19T09:36:14.903Z,71.97
2019-02-19T09:37:14.893Z,71.55
2019-02-19T09:38:14.882Z,71.93
2019-02-19T09:39:14.871Z,71.35
2019-02-19T09:40:14.879Z,71.55
2019-02-19T09:41:14.848Z,71.45
2019-02-19T09:42:14.837Z,71.52
2019-02-19T09:43:14.826Z,71.21
2019-02-19T09:44:14.816Z,71.01
2019-02-19T09:45:14.804Z,70.50
2019-02-19T09:46:14.809Z,70.29
2019-02-19T09:47:14.785Z,70.29
2019-02-19T09:48:14.776Z,70.29
2019-02-19T09:49:14.760Z,70.73
2019-02-19T09:50:14.748Z,70.73
2019-02-19T09:51:14.739Z,70.73
2019-02-19T09:52:14.737Z,70.63
2019-02-19T09:53:14.716Z,70.22
2019-02-19T09:54:14.706Z,70.73
2019-02-19T09:55:14.695Z,70.73
2019-02-19T09:56:14.682Z,71.35
2019-02-19T09:57:14.674Z,70.29
2019-02-19T09:58:14.673Z,70.80
2019-02-19T09:59:14.649Z,70.08
2019-02-19T10:00:14.705Z,70.39
2019-02-19T10:01:14.628Z,70.29
2019-02-19T10:02:14.616Z,70.42
2019-02-19T10:03:14.607Z,70.73
2019-02-19T10:04:14.606Z,71.14
2019-02-19T10:05:14.583Z,71.86
2019-02-19T10:06:14.573Z,70.80
2019-02-19T10:07:14.585Z,71.01
2019-02-19T10:08:14.555Z,70.50
2019-02-19T10:09:14.549Z,70.12
2019-02-19T10:10:14.540Z,70.32
2019-02-19T10:11:14.519Z,70.53
2019-02-19T10:12:14.511Z,70.42
2019-02-19T10:13:14.498Z,70.76
2019-02-19T10:14:14.489Z,70.42
2019-02-19T10:15:14.474Z,70.63
2019-02-19T10:16:14.475Z,70.39
2019-02-19T10:17:14.454Z,69.88
2019-02-19T10:18:14.441Z,70.26
2019-02-19T10:19:14.435Z,69.84
2019-02-19T10:20:14.419Z,69.30
2019-02-19T10:21:14.408Z,69.61
2019-02-19T10:22:14.408Z,68.89
2019-02-19T10:23:14.386Z,68.38
2019-02-19T10:24:14.388Z,67.97
2019-02-19T10:25:14.363Z,68.99
2019-02-19T10:26:14.359Z,68.89
2019-02-19T10:27:14.345Z,69.20
2019-02-19T10:28:14.341Z,68.21
2019-02-19T10:29:14.320Z,67.79
2019-02-19T10:30:14.308Z,68.34
2019-02-19T10:31:14.298Z,68.44
2019-02-19T10:32:14.288Z,69.57
2019-02-19T10:33:14.316Z,69.67
2019-02-19T10:34:14.283Z,68.96
2019-02-19T10:35:14.254Z,68.24
2019-02-19T10:36:14.243Z,68.34
2019-02-19T10:37:14.233Z,67.52
2019-02-19T10:38:14.240Z,68.34
2019-02-19T10:39:14.211Z,68.30
2019-02-19T10:40:14.215Z,67.90
2019-02-19T10:41:14.190Z,67.49
2019-02-19T10:42:14.184Z,68.41
2019-02-19T10:43:14.169Z,68.00
2019-02-19T10:44:14.159Z,67.18
2019-02-19T10:45:14.146Z,67.59
2019-02-19T10:46:14.145Z,68.21
2019-02-19T10:47:14.128Z,68.30
2019-02-19T10:48:18.937Z,67.72
2019-02-19T10:49:15.103Z,68.13
2019-02-19T10:50:14.093Z,68.44
2019-02-19T10:51:14.081Z,68.13
2019-02-19T10:52:14.081Z,67.83
2019-02-19T10:53:14.061Z,68.85
2019-02-19T10:54:14.049Z,69.16
2019-02-19T10:55:14.044Z,68.51
2019-02-19T10:56:14.031Z,67.49
2019-02-19T10:57:14.018Z,68.30
2019-02-19T10:58:22.220Z,67.79
2019-02-19T10:59:15.000Z,67.38
2019-02-19T11:00:13.986Z,68.62
2019-02-19T11:01:13.984Z,68.41
2019-02-19T11:02:13.964Z,68.41
2019-02-19T11:03:13.953Z,67.93
2019-02-19T11:04:13.952Z,68.41
2019-02-19T11:05:13.931Z,68.41
2019-02-19T11:06:13.921Z,68.10
2019-02-19T11:07:13.913Z,67.72
2019-02-19T11:08:13.906Z,67.28
2019-02-19T11:09:13.887Z,67.49
2019-02-19T11:10:13.888Z,67.28
2019-02-19T11:11:13.866Z,66.16
2019-02-19T11:12:13.858Z,66.70
2019-02-19T11:13:13.845Z,67.83
2019-02-19T11:14:13.833Z,67.52
2019-02-19T11:15:13.826Z,67.62
2019-02-19T11:16:13.829Z,67.62
2019-02-19T11:17:13.801Z,67.18
2019-02-19T11:18:13.790Z,66.97
2019-02-19T11:19:13.780Z,67.28
2019-02-19T11:20:13.767Z,67.28
2019-02-19T11:21:19.741Z,67.49
2019-02-19T11:22:14.755Z,67.35
2019-02-19T11:23:13.738Z,67.56
2019-02-19T11:24:13.728Z,66.63
2019-02-19T11:25:13.714Z,66.43
2019-02-19T11:26:13.702Z,66.56
2019-02-19T11:27:13.698Z,66.43
2019-02-19T11:28:13.691Z,67.35
2019-02-19T11:29:13.670Z,67.25
2019-02-19T11:30:13.659Z,66.53
2019-02-19T11:31:13.647Z,66.53
2019-02-19T11:32:13.637Z,66.53
2019-02-19T11:33:13.629Z,66.43
2019-02-19T11:34:13.626Z,65.92
2019-02-19T11:35:13.611Z,66.22
2019-02-19T11:36:13.594Z,66.43
2019-02-19T11:37:13.584Z,66.22
2019-02-19T11:38:13.573Z,65.81
2019-02-19T11:39:13.566Z,66.87
2019-02-19T11:40:13.605Z,67.28
2019-02-19T11:41:13.541Z,67.69
2019-02-19T11:42:13.530Z,67.35
2019-02-19T11:43:13.519Z,67.59
2019-02-19T11:44:13.508Z,67.97
2019-02-19T11:45:13.498Z,67.56
2019-02-19T11:46:13.501Z,67.56
2019-02-19T11:47:13.478Z,67.14
2019-02-19T11:48:13.468Z,66.74
2019-02-19T11:49:13.454Z,67.79
2019-02-19T11:50:13.469Z,67.66
2019-02-19T11:51:13.437Z,67.76
2019-02-19T11:52:13.432Z,67.14
2019-02-19T11:53:13.411Z,66.74
2019-02-19T11:54:13.400Z,66.02
2019-02-19T11:55:13.390Z,66.43
2019-02-19T11:56:13.413Z,65.71
2019-02-19T11:57:13.367Z,66.22
2019-02-19T11:58:13.366Z,66.33
2019-02-19T11:59:13.384Z,65.61
2019-02-19T12:00:13.336Z,66.56
2019-02-19T12:01:13.324Z,66.22
2019-02-19T12:02:13.321Z,66.12
2019-02-19T12:03:13.303Z,66.63
2019-02-19T12:04:13.301Z,65.61
2019-02-19T12:05:13.281Z,66.53
2019-02-19T12:06:13.276Z,66.74
2019-02-19T12:07:13.259Z,66.81
2019-02-19T12:08:13.249Z,66.60
2019-02-19T12:09:13.238Z,67.22
2019-02-19T12:10:13.241Z,66.09
2019-02-19T12:11:13.221Z,65.78
2019-02-19T12:12:13.209Z,66.09
2019-02-19T12:13:13.195Z,65.89
2019-02-19T12:14:13.183Z,64.86
2019-02-19T12:15:13.173Z,64.86
2019-02-19T12:16:13.174Z,65.65
2019-02-19T12:17:13.153Z,65.68
2019-02-19T12:18:13.142Z,65.27
2019-02-19T12:19:13.130Z,65.34
2019-02-19T12:20:13.120Z,64.94
2019-02-19T12:21:13.108Z,64.35
2019-02-19T12:22:13.108Z,64.04
2019-02-19T12:23:13.088Z,65.55
2019-02-19T12:24:13.078Z,65.78
2019-02-19T12:25:13.066Z,65.34
2019-02-19T12:26:13.058Z,64.45
2019-02-19T12:27:13.045Z,63.84
2019-02-19T12:28:13.053Z,63.84
2019-02-19T12:29:13.023Z,64.65
2019-02-19T12:30:13.024Z,64.04
2019-02-19T12:31:13.003Z,63.94
2019-02-19T12:32:12.991Z,64.14
2019-02-19T12:33:12.980Z,64.65
2019-02-19T12:34:12.989Z,63.84
2019-02-19T12:35:12.959Z,64.65
2019-02-19T12:36:12.953Z,64.25
2019-02-19T12:37:12.937Z,64.04
2019-02-19T12:38:12.927Z,64.35
2019-02-19T12:39:12.916Z,64.04
2019-02-19T12:40:12.918Z,63.94
2019-02-19T12:41:12.898Z,63.84
2019-02-19T12:42:12.920Z,64.73
2019-02-19T12:43:12.872Z,64.53
2019-02-19T12:44:12.862Z,64.25
2019-02-19T12:45:12.851Z,64.53
2019-02-19T12:46:12.853Z,64.12
2019-02-19T12:47:12.829Z,64.53
2019-02-19T12:48:12.822Z,64.22
2019-02-19T12:49:12.807Z,64.73
2019-02-19T12:50:12.796Z,63.70
2019-02-19T12:51:12.785Z,63.81
2019-02-19T12:52:12.786Z,63.81